sensor_id;sensor_type;location;lat;lon;timestamp;pressure;altitude;pressure_sealevel;temperature;humidity
62980;BME280;49075;53.988;27.678;2022-10-16T00:04:25;992.4;;;8.2;61.6
62980;BME280;49075;53.988;27.678;2022-10-16T00:08:55;992.4;;;8.2;61.6
62980;BME280;49075;53.988;27.678;2022-10-16T00:14:00;992.4;;;8.1;61.7
62980;BME280;49075;53.988;27.678;2022-10-16T00:18:49;992.4;;;8.1;61.8
62980;BME280;49075;53.988;27.678;2022-10-16T00:24:01;992.4;;;8.1;61.9
62980;BME280;49075;53.988;27.678;2022-10-16T00:28:50;992.4;;;8.1;61.6
62980;BME280;49075;53.988;27.678;2022-10-16T00:33:59;992.4;;;8.2;61.4
62980;BME280;49075;53.988;27.678;2022-10-16T00:39:25;992.4;;;8.2;61.3
62980;BME280;49075;53.988;27.678;2022-10-16T00:43:54;992.4;;;8.2;61.5
62980;BME280;49075;53.988;27.678;2022-10-16T00:48:59;992.4;;;8.2;61.4
62980;BME280;49075;53.988;27.678;2022-10-16T00:53:57;992.3;;;8.2;61.5
62980;BME280;49075;53.988;27.678;2022-10-16T00:59:18;992.3;;;8.1;61.5
62980;BME280;49075;53.988;27.678;2022-10-16T01:04:07;992.3;;;8.1;61.7
62980;BME280;49075;53.988;27.678;2022-10-16T01:09:02;992.3;;;8;61.9
62980;BME280;49075;53.988;27.678;2022-10-16T01:13:54;992.4;;;8;62
62980;BME280;49075;53.988;27.678;2022-10-16T01:19:34;992.5;;;8.1;61.6
62980;BME280;49075;53.988;27.678;2022-10-16T01:24:01;992.5;;;7.9;62
62980;BME280;49075;53.988;27.678;2022-10-16T01:28:56;992.5;;;8;61.9
62980;BME280;49075;53.988;27.678;2022-10-16T01:34:28;992.6;;;7.9;61.9
62980;BME280;49075;53.988;27.678;2022-10-16T01:39:28;992.5;;;8;61.8
62980;BME280;49075;53.988;27.678;2022-10-16T01:44:10;992.5;;;7.9;61.7
62980;BME280;49075;53.988;27.678;2022-10-16T01:48:49;992.6;;;7.6;62.7
62980;BME280;49075;53.988;27.678;2022-10-16T01:53:57;992.6;;;7.8;62.2
62980;BME280;49075;53.988;27.678;2022-10-16T01:59:28;992.6;;;8;61.5
62980;BME280;49075;53.988;27.678;2022-10-16T02:04:11;992.6;;;8;61.5
62980;BME280;49075;53.988;27.678;2022-10-16T02:09:23;992.6;;;7.9;61.8
62980;BME280;49075;53.988;27.678;2022-10-16T02:14:15;992.7;;;7.7;62.2
62980;BME280;49075;53.988;27.678;2022-10-16T02:19:27;992.8;;;7.8;62
62980;BME280;49075;53.988;27.678;2022-10-16T02:24:28;992.8;;;7.6;62.6
62980;BME280;49075;53.988;27.678;2022-10-16T02:28:58;992.8;;;7.7;62.6
62980;BME280;49075;53.988;27.678;2022-10-16T02:34:27;992.7;;;7.7;62.4
62980;BME280;49075;53.988;27.678;2022-10-16T02:39:07;992.8;;;7.6;62.7
62980;BME280;49075;53.988;27.678;2022-10-16T02:43:57;992.8;;;7.6;62.7
62980;BME280;49075;53.988;27.678;2022-10-16T02:48:59;992.9;;;7.6;62.5
62980;BME280;49075;53.988;27.678;2022-10-16T02:54:29;992.9;;;7.6;62.5
62980;BME280;49075;53.988;27.678;2022-10-16T02:59:31;992.9;;;7.5;62.7
62980;BME280;49075;53.988;27.678;2022-10-16T03:03:59;993;;;7.4;63.1
62980;BME280;49075;53.988;27.678;2022-10-16T03:08:57;993;;;7.3;63.4
62980;BME280;49075;53.988;27.678;2022-10-16T03:13:57;993;;;7.2;63.8
62980;BME280;49075;53.988;27.678;2022-10-16T03:19:05;993;;;7.1;63.9
62980;BME280;49075;53.988;27.678;2022-10-16T03:24:31;993;;;7.1;64
62980;BME280;49075;53.988;27.678;2022-10-16T03:28:49;993;;;7;64.1
62980;BME280;49075;53.988;27.678;2022-10-16T03:33:59;993.1;;;6.8;64.6
62980;BME280;49075;53.988;27.678;2022-10-16T03:39:31;993.1;;;6.8;64.6
62980;BME280;49075;53.988;27.678;2022-10-16T03:43:49;993.1;;;6.9;64.4
62980;BME280;49075;53.988;27.678;2022-10-16T03:48:59;993.2;;;6.8;64.8
62980;BME280;49075;53.988;27.678;2022-10-16T03:54:10;993.2;;;6.8;64.6
62980;BME280;49075;53.988;27.678;2022-10-16T03:59:09;993.2;;;6.8;64.6
62980;BME280;49075;53.988;27.678;2022-10-16T04:04:33;993.3;;;6.6;64.9
62980;BME280;49075;53.988;27.678;2022-10-16T04:09:31;993.2;;;6.5;65.7
62980;BME280;49075;53.988;27.678;2022-10-16T04:14:07;993.2;;;6.5;65.5
62980;BME280;49075;53.988;27.678;2022-10-16T04:18:59;993.3;;;6.5;65.5
62980;BME280;49075;53.988;27.678;2022-10-16T04:24:01;993.3;;;6.4;65.7
62980;BME280;49075;53.988;27.678;2022-10-16T04:29:01;993.4;;;6.3;66
62980;BME280;49075;53.988;27.678;2022-10-16T04:34:01;993.3;;;6.2;66.3
62980;BME280;49075;53.988;27.678;2022-10-16T04:39:11;993.3;;;6.1;66.5
62980;BME280;49075;53.988;27.678;2022-10-16T04:44:33;993.3;;;6;66.8
62980;BME280;49075;53.988;27.678;2022-10-16T04:48:59;993.2;;;6;66.8
62980;BME280;49075;53.988;27.678;2022-10-16T04:54:33;993.1;;;5.9;67.3
62980;BME280;49075;53.988;27.678;2022-10-16T04:59:14;993;;;5.8;67.5
62980;BME280;49075;53.988;27.678;2022-10-16T05:04:09;993;;;5.7;67.8
62980;BME280;49075;53.988;27.678;2022-10-16T05:08:59;993;;;5.7;67.9
62980;BME280;49075;53.988;27.678;2022-10-16T05:14:01;993.1;;;5.6;68
62980;BME280;49075;53.988;27.678;2022-10-16T05:19:01;993.2;;;5.7;67.7
62980;BME280;49075;53.988;27.678;2022-10-16T05:24:01;993.2;;;5.7;67.8
62980;BME280;49075;53.988;27.678;2022-10-16T05:29:33;993.2;;;5.7;67.6
62980;BME280;49075;53.988;27.678;2022-10-16T05:34:02;993.2;;;5.8;67.4
62980;BME280;49075;53.988;27.678;2022-10-16T05:38:59;993.1;;;6.1;66.6
62980;BME280;49075;53.988;27.678;2022-10-16T05:43:59;993.2;;;6.1;66.5
62980;BME280;49075;53.988;27.678;2022-10-16T05:49:09;993.3;;;6.7;64.9
62980;BME280;49075;53.988;27.678;2022-10-16T05:54:33;993.4;;;7.2;63.1
62980;BME280;49075;53.988;27.678;2022-10-16T05:58:51;993.4;;;7.6;61.5
62980;BME280;49075;53.988;27.678;2022-10-16T06:04:01;993.4;;;8;60.5
62980;BME280;49075;53.988;27.678;2022-10-16T06:09:29;993.4;;;8.3;59.4
62980;BME280;49075;53.988;27.678;2022-10-16T06:14:11;993.4;;;8.8;58.3
62980;BME280;49075;53.988;27.678;2022-10-16T06:19:13;993.5;;;8.7;57.4
62980;BME280;49075;53.988;27.678;2022-10-16T06:24:33;993.5;;;9;57.1
62980;BME280;49075;53.988;27.678;2022-10-16T06:29:09;993.6;;;8.6;57.5
62980;BME280;49075;53.988;27.678;2022-10-16T06:34:00;993.7;;;8.6;57
62980;BME280;49075;53.988;27.678;2022-10-16T06:39:09;993.9;;;8.6;56.8
62980;BME280;49075;53.988;27.678;2022-10-16T06:44:33;993.9;;;8.5;57
62980;BME280;49075;53.988;27.678;2022-10-16T06:48:59;993.9;;;9;56.1
62980;BME280;49075;53.988;27.678;2022-10-16T06:54:29;994;;;9.2;55
62980;BME280;49075;53.988;27.678;2022-10-16T06:59:09;994;;;9.5;54.4
62980;BME280;49075;53.988;27.678;2022-10-16T07:04:02;993.9;;;10.4;52.1
62980;BME280;49075;53.988;27.678;2022-10-16T07:09:03;993.9;;;10.4;52.3
62980;BME280;49075;53.988;27.678;2022-10-16T07:14:33;994;;;10.5;51
62980;BME280;49075;53.988;27.678;2022-10-16T07:19:02;993.8;;;10.7;51.2
62980;BME280;49075;53.988;27.678;2022-10-16T07:24:33;993.9;;;11.2;49.8
62980;BME280;49075;53.988;27.678;2022-10-16T07:29:33;994;;;11.6;48.9
62980;BME280;49075;53.988;27.678;2022-10-16T07:34:00;994;;;11.6;48.5
62980;BME280;49075;53.988;27.678;2022-10-16T07:39:33;993.9;;;12.1;48
62980;BME280;49075;53.988;27.678;2022-10-16T07:44:33;994;;;12.1;47.6
62980;BME280;49075;53.988;27.678;2022-10-16T07:49:33;993.9;;;11.8;47.9
62980;BME280;49075;53.988;27.678;2022-10-16T07:53:52;994;;;12.2;47.4
62980;BME280;49075;53.988;27.678;2022-10-16T07:59:33;994.1;;;12.5;46.6
62980;BME280;49075;53.988;27.678;2022-10-16T08:03:52;994.2;;;12.4;47.2
62980;BME280;49075;53.988;27.678;2022-10-16T08:09:33;994.2;;;12.9;45.9
62980;BME280;49075;53.988;27.678;2022-10-16T08:14:33;994.2;;;13.5;44.8
62980;BME280;49075;53.988;27.678;2022-10-16T08:18:59;994.3;;;14;43.5
62980;BME280;49075;53.988;27.678;2022-10-16T08:24:35;994.3;;;14;43.5
62980;BME280;49075;53.988;27.678;2022-10-16T08:29:13;994.3;;;14.8;42.6
62980;BME280;49075;53.988;27.678;2022-10-16T09:09:14;994.3;;;12.3;48.6
62980;BME280;49075;53.988;27.678;2022-10-16T09:14:03;994.3;;;12.3;48.6
62980;BME280;49075;53.988;27.678;2022-10-16T09:19:03;994.3;;;12.3;48.6
62980;BME280;49075;53.988;27.678;2022-10-16T09:24:06;994.4;;;12.6;48.5
62980;BME280;49075;53.988;27.678;2022-10-16T09:29:08;994.4;;;12.6;48.5
62980;BME280;49075;53.988;27.678;2022-10-16T09:34:36;994.3;;;12.4;49.3
62980;BME280;49075;53.988;27.678;2022-10-16T09:39:01;994.3;;;12.6;49
62980;BME280;49075;53.988;27.678;2022-10-16T09:44:35;994.3;;;12.3;49.5
62980;BME280;49075;53.988;27.678;2022-10-16T09:49:00;994.5;;;12.1;49.9
62980;BME280;49075;53.988;27.678;2022-10-16T09:54:13;994.4;;;11.9;50.3
62980;BME280;49075;53.988;27.678;2022-10-16T09:59:11;994.4;;;11.6;51
62980;BME280;49075;53.988;27.678;2022-10-16T10:04:02;994.3;;;11.6;51.3
62980;BME280;49075;53.988;27.678;2022-10-16T10:09:03;994.3;;;11.5;51.3
62980;BME280;49075;53.988;27.678;2022-10-16T10:13:51;994.3;;;11.5;51.3
62980;BME280;49075;53.988;27.678;2022-10-16T10:19:01;994.3;;;11.9;50.7
62980;BME280;49075;53.988;27.678;2022-10-16T10:24:23;994.4;;;11.4;51.9
62980;BME280;49075;53.988;27.678;2022-10-16T10:29:41;994.4;;;11.3;52.2
62980;BME280;49075;53.988;27.678;2022-10-16T10:34:41;994.4;;;11.3;52.4
62980;BME280;49075;53.988;27.678;2022-10-16T10:39:03;994.3;;;11.3;52.5
62980;BME280;49075;53.988;27.678;2022-10-16T10:44:38;994.3;;;11.4;52.2
62980;BME280;49075;53.988;27.678;2022-10-16T10:48:54;994.4;;;11.2;52.8
62980;BME280;49075;53.988;27.678;2022-10-16T10:54:04;994.4;;;11.4;52.3
62980;BME280;49075;53.988;27.678;2022-10-16T10:59:43;994.6;;;11.3;52.4
62980;BME280;49075;53.988;27.678;2022-10-16T11:04:17;994.5;;;11.2;52.5
62980;BME280;49075;53.988;27.678;2022-10-16T11:09:02;994.2;;;11.2;52.4
62980;BME280;49075;53.988;27.678;2022-10-16T11:14:36;994.3;;;11.4;52
62980;BME280;49075;53.988;27.678;2022-10-16T11:19:26;994.3;;;11.4;52
62980;BME280;49075;53.988;27.678;2022-10-16T11:24:40;994.2;;;11.3;52.1
62980;BME280;49075;53.988;27.678;2022-10-16T11:28:52;994.3;;;11.4;52.1
62980;BME280;49075;53.988;27.678;2022-10-16T11:34:01;994.2;;;11.6;51.8
62980;BME280;49075;53.988;27.678;2022-10-16T11:39:20;994.2;;;11.9;51.3
62980;BME280;49075;53.988;27.678;2022-10-16T11:44:38;994.3;;;12;50.7
62980;BME280;49075;53.988;27.678;2022-10-16T11:49:36;994.2;;;11.9;50.6
62980;BME280;49075;53.988;27.678;2022-10-16T11:54:39;994.1;;;11.9;50.4
62980;BME280;49075;53.988;27.678;2022-10-16T11:58:53;994.1;;;12.4;49.7
62980;BME280;49075;53.988;27.678;2022-10-16T12:04:03;994;;;12.2;49.6
62980;BME280;49075;53.988;27.678;2022-10-16T12:09:36;994.1;;;12.5;49
62980;BME280;49075;53.988;27.678;2022-10-16T12:14:22;994;;;12.4;49
62980;BME280;49075;53.988;27.678;2022-10-16T12:19:12;994;;;12.5;49
62980;BME280;49075;53.988;27.678;2022-10-16T12:24:32;994;;;12.2;49.6
62980;BME280;49075;53.988;27.678;2022-10-16T12:29:13;994;;;12.2;49.5
62980;BME280;49075;53.988;27.678;2022-10-16T12:34:38;994;;;12.1;49.6
62980;BME280;49075;53.988;27.678;2022-10-16T12:39:02;994;;;12;49.6
62980;BME280;49075;53.988;27.678;2022-10-16T12:44:36;994;;;11.9;49.7
62980;BME280;49075;53.988;27.678;2022-10-16T12:49:35;994.1;;;12;49.8
62980;BME280;49075;53.988;27.678;2022-10-16T12:54:12;994;;;12;50
62980;BME280;49075;53.988;27.678;2022-10-16T12:59:32;994;;;11.9;50.2
62980;BME280;49075;53.988;27.678;2022-10-16T13:04:38;994.1;;;11.8;50.4
62980;BME280;49075;53.988;27.678;2022-10-16T13:09:38;994.1;;;11.8;50.4
62980;BME280;49075;53.988;27.678;2022-10-16T13:14:39;994.1;;;11.8;50.1
62980;BME280;49075;53.988;27.678;2022-10-16T13:19:38;994.1;;;11.8;50
62980;BME280;49075;53.988;27.678;2022-10-16T13:24:13;994.1;;;11.6;49.9
62980;BME280;49075;53.988;27.678;2022-10-16T13:29:02;994.1;;;11.6;49.8
62980;BME280;49075;53.988;27.678;2022-10-16T13:33:52;994;;;11.6;49.7
62980;BME280;49075;53.988;27.678;2022-10-16T13:39:09;993.9;;;11.7;49.8
62980;BME280;49075;53.988;27.678;2022-10-16T13:44:14;993.9;;;11.7;49.4
62980;BME280;49075;53.988;27.678;2022-10-16T13:49:05;993.9;;;11.5;49.5
62980;BME280;49075;53.988;27.678;2022-10-16T13:54:04;993.9;;;11.5;49
62980;BME280;49075;53.988;27.678;2022-10-16T13:59:04;994;;;11.6;48.5
62980;BME280;49075;53.988;27.678;2022-10-16T14:04:37;994.1;;;11.3;48
62980;BME280;49075;53.988;27.678;2022-10-16T14:09:24;994.1;;;11.4;47.6
62980;BME280;49075;53.988;27.678;2022-10-16T14:13:52;994.1;;;11.4;47.4
62980;BME280;49075;53.988;27.678;2022-10-16T14:19:38;994.1;;;11.3;47.3
62980;BME280;49075;53.988;27.678;2022-10-16T14:24:36;994;;;11.1;47.3
62980;BME280;49075;53.988;27.678;2022-10-16T14:29:36;994;;;11.1;47.2
62980;BME280;49075;53.988;27.678;2022-10-16T14:33:52;994.1;;;10.9;47.3
62980;BME280;49075;53.988;27.678;2022-10-16T14:39:02;994.2;;;11;47.3
62980;BME280;49075;53.988;27.678;2022-10-16T14:44:12;994.2;;;10.9;47.4
62980;BME280;49075;53.988;27.678;2022-10-16T14:49:38;994.2;;;10.9;47.4
62980;BME280;49075;53.988;27.678;2022-10-16T14:54:10;994.3;;;10.6;47.7
62980;BME280;49075;53.988;27.678;2022-10-16T14:59:38;994.3;;;10.6;47.8
62980;BME280;49075;53.988;27.678;2022-10-16T15:04:00;994.2;;;10.6;47.8
62980;BME280;49075;53.988;27.678;2022-10-16T15:09:38;994.3;;;10.5;48
62980;BME280;49075;53.988;27.678;2022-10-16T15:14:38;994.3;;;10.3;48.3
62980;BME280;49075;53.988;27.678;2022-10-16T15:18:52;994.2;;;10.3;48.7
62980;BME280;49075;53.988;27.678;2022-10-16T15:24:02;994.3;;;10.2;48.5
62980;BME280;49075;53.988;27.678;2022-10-16T15:29:10;994.2;;;10.1;48.8
62980;BME280;49075;53.988;27.678;2022-10-16T15:34:02;994.4;;;10;48.7
62980;BME280;49075;53.988;27.678;2022-10-16T15:38:52;994.4;;;10.1;48.5
62980;BME280;49075;53.988;27.678;2022-10-16T15:43:52;994.3;;;10;48.6
62980;BME280;49075;53.988;27.678;2022-10-16T15:49:00;994.4;;;9.9;48.7
62980;BME280;49075;53.988;27.678;2022-10-16T15:54:00;994.4;;;10.2;48.2
62980;BME280;49075;53.988;27.678;2022-10-16T15:59:36;994.4;;;10;48.4
62980;BME280;49075;53.988;27.678;2022-10-16T16:03:52;994.5;;;9.9;48.7
62980;BME280;49075;53.988;27.678;2022-10-16T16:09:14;994.5;;;10;48.5
62980;BME280;49075;53.988;27.678;2022-10-16T16:14:36;994.6;;;10;48.1
62980;BME280;49075;53.988;27.678;2022-10-16T16:19:02;994.6;;;10;48.3
62980;BME280;49075;53.988;27.678;2022-10-16T16:34:00;994.6;;;9.9;48.5
62980;BME280;49075;53.988;27.678;2022-10-16T16:38:52;994.6;;;9.9;48.5
62980;BME280;49075;53.988;27.678;2022-10-16T16:44:36;994.7;;;9.8;48.7
62980;BME280;49075;53.988;27.678;2022-10-16T16:49:14;994.7;;;9.9;48.5
62980;BME280;49075;53.988;27.678;2022-10-16T16:54:36;994.7;;;9.9;48.3
62980;BME280;49075;53.988;27.678;2022-10-16T16:59:36;994.8;;;9.8;48.7
62980;BME280;49075;53.988;27.678;2022-10-16T17:04:36;994.8;;;9.7;48.7
62980;BME280;49075;53.988;27.678;2022-10-16T17:09:34;994.9;;;9.8;48.5
62980;BME280;49075;53.988;27.678;2022-10-16T17:14:12;994.8;;;9.8;48.5
62980;BME280;49075;53.988;27.678;2022-10-16T17:19:34;994.8;;;9.7;48.8
62980;BME280;49075;53.988;27.678;2022-10-16T17:24:34;994.8;;;9.8;48.6
62980;BME280;49075;53.988;27.678;2022-10-16T17:29:00;994.7;;;9.8;48.6
62980;BME280;49075;53.988;27.678;2022-10-16T17:34:10;994.8;;;9.6;48.8
62980;BME280;49075;53.988;27.678;2022-10-16T17:39:34;994.8;;;9.7;48.8
62980;BME280;49075;53.988;27.678;2022-10-16T17:44:10;994.7;;;9.6;49
62980;BME280;49075;53.988;27.678;2022-10-16T17:49:02;994.7;;;9.7;48.9
62980;BME280;49075;53.988;27.678;2022-10-16T17:54:34;994.7;;;9.7;48.8
62980;BME280;49075;53.988;27.678;2022-10-16T17:59:02;994.6;;;9.6;49.1
62980;BME280;49075;53.988;27.678;2022-10-16T18:04:00;994.6;;;9.6;49.1
62980;BME280;49075;53.988;27.678;2022-10-16T18:08:58;994.6;;;9.7;48.9
62980;BME280;49075;53.988;27.678;2022-10-16T18:14:10;994.8;;;9.5;49.2
62980;BME280;49075;53.988;27.678;2022-10-16T18:19:00;994.8;;;9.5;49.3
62980;BME280;49075;53.988;27.678;2022-10-16T18:24:34;994.8;;;9.4;49.3
62980;BME280;49075;53.988;27.678;2022-10-16T18:29:34;994.8;;;9.5;49.2
62980;BME280;49075;53.988;27.678;2022-10-16T18:33:52;994.8;;;9.4;49.5
62980;BME280;49075;53.988;27.678;2022-10-16T18:39:12;994.8;;;9.4;49.5
62980;BME280;49075;53.988;27.678;2022-10-16T18:44:36;994.9;;;9.5;49.4
62980;BME280;49075;53.988;27.678;2022-10-16T18:49:00;994.9;;;9.5;49.5
62980;BME280;49075;53.988;27.678;2022-10-16T18:54:11;994.8;;;9.5;49.7
62980;BME280;49075;53.988;27.678;2022-10-16T18:59:02;994.7;;;9.4;49.9
62980;BME280;49075;53.988;27.678;2022-10-16T19:04:00;994.6;;;9.3;50.1
62980;BME280;49075;53.988;27.678;2022-10-16T19:09:00;994.7;;;9.3;50.2
62980;BME280;49075;53.988;27.678;2022-10-16T19:14:34;994.8;;;9.4;50.2
62980;BME280;49075;53.988;27.678;2022-10-16T19:18:52;994.7;;;9.3;50.3
62980;BME280;49075;53.988;27.678;2022-10-16T19:24:36;994.7;;;9.3;50.4
62980;BME280;49075;53.988;27.678;2022-10-16T19:29:01;994.7;;;9.2;50.9
62980;BME280;49075;53.988;27.678;2022-10-16T19:34:02;994.8;;;9.2;50.8
62980;BME280;49075;53.988;27.678;2022-10-16T19:39:00;994.8;;;9.2;51.1
62980;BME280;49075;53.988;27.678;2022-10-16T19:44:34;994.8;;;9.4;50.8
62980;BME280;49075;53.988;27.678;2022-10-16T19:49:36;994.7;;;9.4;50.8
62980;BME280;49075;53.988;27.678;2022-10-16T19:54:01;994.8;;;9.3;51
62980;BME280;49075;53.988;27.678;2022-10-16T19:59:26;994.8;;;9.2;51.3
62980;BME280;49075;53.988;27.678;2022-10-16T20:04:12;994.6;;;9.2;51.4
62980;BME280;49075;53.988;27.678;2022-10-16T20:09:34;994.6;;;9.1;51.7
62980;BME280;49075;53.988;27.678;2022-10-16T20:14:02;994.7;;;9.2;51.6
62980;BME280;49075;53.988;27.678;2022-10-16T20:19:36;994.8;;;9.4;51.4
62980;BME280;49075;53.988;27.678;2022-10-16T20:24:08;994.9;;;9.4;51.5
62980;BME280;49075;53.988;27.678;2022-10-16T20:29:34;994.9;;;9.3;51.8
62980;BME280;49075;53.988;27.678;2022-10-16T20:34:38;994.9;;;9.2;51.9
62980;BME280;49075;53.988;27.678;2022-10-16T20:39:12;994.8;;;9.2;52.3
62980;BME280;49075;53.988;27.678;2022-10-16T20:44:38;994.8;;;9.1;54.7
62980;BME280;49075;53.988;27.678;2022-10-16T20:49:02;994.8;;;8.8;58.1
62980;BME280;49075;53.988;27.678;2022-10-16T20:53:53;994.6;;;8.5;60.1
62980;BME280;49075;53.988;27.678;2022-10-16T20:59:38;994.7;;;8.4;60.1
62980;BME280;49075;53.988;27.678;2022-10-16T21:04:12;994.7;;;8.3;60.4
62980;BME280;49075;53.988;27.678;2022-10-16T21:09:02;994.7;;;8.4;59.1
62980;BME280;49075;53.988;27.678;2022-10-16T21:14:03;994.8;;;8.5;58.6
62980;BME280;49075;53.988;27.678;2022-10-16T21:19:04;994.8;;;8.7;57.6
62980;BME280;49075;53.988;27.678;2022-10-16T21:24:38;994.9;;;8.7;57.2
62980;BME280;49075;53.988;27.678;2022-10-16T21:29:36;994.9;;;8.9;56.7
62980;BME280;49075;53.988;27.678;2022-10-16T21:34:36;995;;;8.9;56.5
62980;BME280;49075;53.988;27.678;2022-10-16T21:39:10;995;;;9;56
62980;BME280;49075;53.988;27.678;2022-10-16T21:44:38;995;;;9.2;55.6
62980;BME280;49075;53.988;27.678;2022-10-16T21:49:03;994.8;;;9;56
62980;BME280;49075;53.988;27.678;2022-10-16T21:54:38;994.7;;;9;56.2
62980;BME280;49075;53.988;27.678;2022-10-16T21:59:16;994.7;;;8.9;56.4
62980;BME280;49075;53.988;27.678;2022-10-16T22:03:52;994.6;;;8.9;56.6
62980;BME280;49075;53.988;27.678;2022-10-16T22:09:00;994.4;;;8.9;56.4
62980;BME280;49075;53.988;27.678;2022-10-16T22:14:24;994.3;;;8.9;56.7
62980;BME280;49075;53.988;27.678;2022-10-16T22:18:52;994.3;;;9.1;56.3
62980;BME280;49075;53.988;27.678;2022-10-16T22:24:14;994.4;;;9;56.5
62980;BME280;49075;53.988;27.678;2022-10-16T22:29:38;994.4;;;9.1;56.5
62980;BME280;49075;53.988;27.678;2022-10-16T22:34:38;994.6;;;9;56.7
62980;BME280;49075;53.988;27.678;2022-10-16T22:39:32;994.6;;;9;56.6
62980;BME280;49075;53.988;27.678;2022-10-16T22:44:36;994.7;;;9.1;56.7
62980;BME280;49075;53.988;27.678;2022-10-16T22:49:36;994.7;;;9.3;56.1
62980;BME280;49075;53.988;27.678;2022-10-16T22:54:02;994.6;;;9.2;56.6
62980;BME280;49075;53.988;27.678;2022-10-16T22:59:00;994.7;;;9.3;56.4
62980;BME280;49075;53.988;27.678;2022-10-16T23:04:18;994.7;;;9.2;57.1
62980;BME280;49075;53.988;27.678;2022-10-16T23:09:36;994.7;;;9.2;57.2
62980;BME280;49075;53.988;27.678;2022-10-16T23:14:36;994.7;;;9.3;57.3
62980;BME280;49075;53.988;27.678;2022-10-16T23:19:02;994.7;;;9.3;57.6
62980;BME280;49075;53.988;27.678;2022-10-16T23:24:08;994.7;;;9.2;58.4
62980;BME280;49075;53.988;27.678;2022-10-16T23:29:10;994.6;;;9.1;59.6
62980;BME280;49075;53.988;27.678;2022-10-16T23:34:00;994.6;;;9.1;59.8
62980;BME280;49075;53.988;27.678;2022-10-16T23:39:30;994.6;;;9.2;60.7
62980;BME280;49075;53.988;27.678;2022-10-16T23:44:30;994.7;;;9.1;61.9
62980;BME280;49075;53.988;27.678;2022-10-16T23:49:00;994.8;;;9;62.9
62980;BME280;49075;53.988;27.678;2022-10-16T23:54:32;994.9;;;8.9;63.7
62980;BME280;49075;53.988;27.678;2022-10-16T23:59:18;994.9;;;8.9;64.9
